sensor_id;sensor_type;location;lat;lon;timestamp;P1;durP1;ratioP1;P2;durP2;ratioP2
75236;SDS011;63826;48.100;-1.670;2022-10-16T00:01:27;2.47;;;0.43;;
75236;SDS011;63826;48.100;-1.670;2022-10-16T00:03:55;1.85;;;0.50;;
75236;SDS011;63826;48.100;-1.670;2022-10-16T00:06:21;1.35;;;0.40;;
75236;SDS011;63826;48.100;-1.670;2022-10-16T00:08:47;2.30;;;0.50;;
75236;SDS011;63826;48.100;-1.670;2022-10-16T00:13:40;3.45;;;0.55;;
75236;SDS011;63826;48.100;-1.670;2022-10-16T00:16:07;2.40;;;0.50;;
75236;SDS011;63826;48.100;-1.670;2022-10-16T00:18:33;4.70;;;0.60;;
75236;SDS011;63826;48.100;-1.670;2022-10-16T00:21:07;2.80;;;0.60;;
75236;SDS011;63826;48.100;-1.670;2022-10-16T00:23:33;1.42;;;0.40;;
75236;SDS011;63826;48.100;-1.670;2022-10-16T00:26:04;3.50;;;0.50;;
75236;SDS011;63826;48.100;-1.670;2022-10-16T00:28:30;3.17;;;0.50;;
75236;SDS011;63826;48.100;-1.670;2022-10-16T00:30:56;3.38;;;0.60;;
75236;SDS011;63826;48.100;-1.670;2022-10-16T00:33:22;3.63;;;0.80;;
75236;SDS011;63826;48.100;-1.670;2022-10-16T00:35:48;1.42;;;0.50;;
75236;SDS011;63826;48.100;-1.670;2022-10-16T00:38:15;2.88;;;0.60;;
75236;SDS011;63826;48.100;-1.670;2022-10-16T00:40:41;2.78;;;0.65;;
75236;SDS011;63826;48.100;-1.670;2022-10-16T00:43:53;2.58;;;0.68;;
75236;SDS011;63826;48.100;-1.670;2022-10-16T00:45:53;2.40;;;0.70;;
75236;SDS011;63826;48.100;-1.670;2022-10-16T00:48:19;3.13;;;0.60;;
75236;SDS011;63826;48.100;-1.670;2022-10-16T00:50:45;3.28;;;0.80;;
75236;SDS011;63826;48.100;-1.670;2022-10-16T00:53:11;2.45;;;0.60;;
75236;SDS011;63826;48.100;-1.670;2022-10-16T00:55:37;2.80;;;0.50;;
75236;SDS011;63826;48.100;-1.670;2022-10-16T00:58:03;3.47;;;0.60;;
75236;SDS011;63826;48.100;-1.670;2022-10-16T01:00:29;3.17;;;0.82;;
75236;SDS011;63826;48.100;-1.670;2022-10-16T01:02:57;2.72;;;0.63;;
75236;SDS011;63826;48.100;-1.670;2022-10-16T01:05:24;2.67;;;0.60;;
75236;SDS011;63826;48.100;-1.670;2022-10-16T01:21:03;2.80;;;0.60;;
75236;SDS011;63826;48.100;-1.670;2022-10-16T01:29:07;2.22;;;0.70;;
75236;SDS011;63826;48.100;-1.670;2022-10-16T01:31:35;1.88;;;0.70;;
75236;SDS011;63826;48.100;-1.670;2022-10-16T01:34:03;3.27;;;0.70;;
75236;SDS011;63826;48.100;-1.670;2022-10-16T01:36:33;3.58;;;0.80;;
75236;SDS011;63826;48.100;-1.670;2022-10-16T01:39:01;3.35;;;0.80;;
75236;SDS011;63826;48.100;-1.670;2022-10-16T01:41:30;4.38;;;0.80;;
75236;SDS011;63826;48.100;-1.670;2022-10-16T01:44:01;3.30;;;0.90;;
75236;SDS011;63826;48.100;-1.670;2022-10-16T01:46:27;3.57;;;0.90;;
75236;SDS011;63826;48.100;-1.670;2022-10-16T01:48:54;2.70;;;0.80;;
75236;SDS011;63826;48.100;-1.670;2022-10-16T01:51:21;2.17;;;0.70;;
75236;SDS011;63826;48.100;-1.670;2022-10-16T01:53:52;2.78;;;0.70;;
75236;SDS011;63826;48.100;-1.670;2022-10-16T01:56:18;3.78;;;0.80;;
75236;SDS011;63826;48.100;-1.670;2022-10-16T01:58:49;2.97;;;1.10;;
75236;SDS011;63826;48.100;-1.670;2022-10-16T02:01:17;2.60;;;0.85;;
75236;SDS011;63826;48.100;-1.670;2022-10-16T02:03:44;3.03;;;0.70;;
75236;SDS011;63826;48.100;-1.670;2022-10-16T02:06:12;4.25;;;0.80;;
75236;SDS011;63826;48.100;-1.670;2022-10-16T02:08:38;3.28;;;0.80;;
75236;SDS011;63826;48.100;-1.670;2022-10-16T02:11:08;3.07;;;0.87;;
75236;SDS011;63826;48.100;-1.670;2022-10-16T02:13:42;3.47;;;0.82;;
75236;SDS011;63826;48.100;-1.670;2022-10-16T02:16:10;3.53;;;0.85;;
75236;SDS011;63826;48.100;-1.670;2022-10-16T02:18:37;2.83;;;0.90;;
75236;SDS011;63826;48.100;-1.670;2022-10-16T02:26:02;5.13;;;1.02;;
75236;SDS011;63826;48.100;-1.670;2022-10-16T02:28:32;3.00;;;0.80;;
75236;SDS011;63826;48.100;-1.670;2022-10-16T02:31:03;3.80;;;0.90;;
75236;SDS011;63826;48.100;-1.670;2022-10-16T02:33:30;2.60;;;0.80;;
75236;SDS011;63826;48.100;-1.670;2022-10-16T02:35:57;5.07;;;1.00;;
75236;SDS011;63826;48.100;-1.670;2022-10-16T02:38:23;2.97;;;1.00;;
75236;SDS011;63826;48.100;-1.670;2022-10-16T02:40:50;4.45;;;1.40;;
75236;SDS011;63826;48.100;-1.670;2022-10-16T02:43:17;2.97;;;0.70;;
75236;SDS011;63826;48.100;-1.670;2022-10-16T02:45:43;3.97;;;0.90;;
75236;SDS011;63826;48.100;-1.670;2022-10-16T02:48:09;3.33;;;0.90;;
75236;SDS011;63826;48.100;-1.670;2022-10-16T02:50:35;3.67;;;0.98;;
75236;SDS011;63826;48.100;-1.670;2022-10-16T02:53:01;4.07;;;1.15;;
75236;SDS011;63826;48.100;-1.670;2022-10-16T02:55:27;3.72;;;1.00;;
75236;SDS011;63826;48.100;-1.670;2022-10-16T02:57:53;3.75;;;1.17;;
75236;SDS011;63826;48.100;-1.670;2022-10-16T03:00:20;3.17;;;1.08;;
75236;SDS011;63826;48.100;-1.670;2022-10-16T03:02:46;3.25;;;0.90;;
75236;SDS011;63826;48.100;-1.670;2022-10-16T03:05:12;3.45;;;0.80;;
75236;SDS011;63826;48.100;-1.670;2022-10-16T03:07:38;2.72;;;1.00;;
75236;SDS011;63826;48.100;-1.670;2022-10-16T03:10:04;3.17;;;0.80;;
75236;SDS011;63826;48.100;-1.670;2022-10-16T03:12:30;2.35;;;1.02;;
75236;SDS011;63826;48.100;-1.670;2022-10-16T03:14:57;3.38;;;0.90;;
75236;SDS011;63826;48.100;-1.670;2022-10-16T03:17:23;4.53;;;1.20;;
75236;SDS011;63826;48.100;-1.670;2022-10-16T03:19:49;3.83;;;1.00;;
75236;SDS011;63826;48.100;-1.670;2022-10-16T03:22:15;3.70;;;0.80;;
75236;SDS011;63826;48.100;-1.670;2022-10-16T03:24:41;6.45;;;1.17;;
75236;SDS011;63826;48.100;-1.670;2022-10-16T03:27:07;3.80;;;0.90;;
75236;SDS011;63826;48.100;-1.670;2022-10-16T03:29:33;3.08;;;1.05;;
75236;SDS011;63826;48.100;-1.670;2022-10-16T03:32:00;3.22;;;1.00;;
75236;SDS011;63826;48.100;-1.670;2022-10-16T03:34:26;3.80;;;0.97;;
75236;SDS011;63826;48.100;-1.670;2022-10-16T03:36:52;3.28;;;0.80;;
75236;SDS011;63826;48.100;-1.670;2022-10-16T03:39:19;3.10;;;1.10;;
75236;SDS011;63826;48.100;-1.670;2022-10-16T03:41:45;4.40;;;1.00;;
75236;SDS011;63826;48.100;-1.670;2022-10-16T03:44:11;3.58;;;0.88;;
75236;SDS011;63826;48.100;-1.670;2022-10-16T03:46:37;3.63;;;1.00;;
75236;SDS011;63826;48.100;-1.670;2022-10-16T03:49:03;4.32;;;1.10;;
75236;SDS011;63826;48.100;-1.670;2022-10-16T03:51:29;3.63;;;1.20;;
75236;SDS011;63826;48.100;-1.670;2022-10-16T03:53:55;2.80;;;0.90;;
75236;SDS011;63826;48.100;-1.670;2022-10-16T03:56:21;2.00;;;0.95;;
75236;SDS011;63826;48.100;-1.670;2022-10-16T03:58:47;4.25;;;1.08;;
75236;SDS011;63826;48.100;-1.670;2022-10-16T04:01:13;1.90;;;0.80;;
75236;SDS011;63826;48.100;-1.670;2022-10-16T04:03:39;3.05;;;1.08;;
75236;SDS011;63826;48.100;-1.670;2022-10-16T04:06:05;3.97;;;1.10;;
75236;SDS011;63826;48.100;-1.670;2022-10-16T04:08:31;2.40;;;0.80;;
75236;SDS011;63826;48.100;-1.670;2022-10-16T04:10:59;3.80;;;1.10;;
75236;SDS011;63826;48.100;-1.670;2022-10-16T04:13:26;3.70;;;0.95;;
75236;SDS011;63826;48.100;-1.670;2022-10-16T04:15:52;4.40;;;1.05;;
75236;SDS011;63826;48.100;-1.670;2022-10-16T04:18:18;3.53;;;1.00;;
75236;SDS011;63826;48.100;-1.670;2022-10-16T04:20:44;3.53;;;1.20;;
75236;SDS011;63826;48.100;-1.670;2022-10-16T04:23:10;3.40;;;0.95;;
75236;SDS011;63826;48.100;-1.670;2022-10-16T04:25:36;3.42;;;1.10;;
75236;SDS011;63826;48.100;-1.670;2022-10-16T04:28:02;3.85;;;1.00;;
75236;SDS011;63826;48.100;-1.670;2022-10-16T04:30:28;3.60;;;0.90;;
75236;SDS011;63826;48.100;-1.670;2022-10-16T04:32:54;3.13;;;1.17;;
75236;SDS011;63826;48.100;-1.670;2022-10-16T04:35:20;2.85;;;1.13;;
75236;SDS011;63826;48.100;-1.670;2022-10-16T04:37:47;3.00;;;1.08;;
75236;SDS011;63826;48.100;-1.670;2022-10-16T04:40:13;3.77;;;1.10;;
75236;SDS011;63826;48.100;-1.670;2022-10-16T04:42:39;3.33;;;1.02;;
75236;SDS011;63826;48.100;-1.670;2022-10-16T04:45:05;4.20;;;1.27;;
75236;SDS011;63826;48.100;-1.670;2022-10-16T04:47:33;2.53;;;1.00;;
75236;SDS011;63826;48.100;-1.670;2022-10-16T04:49:59;3.53;;;1.00;;
75236;SDS011;63826;48.100;-1.670;2022-10-16T04:52:28;3.27;;;1.13;;
75236;SDS011;63826;48.100;-1.670;2022-10-16T04:54:54;3.60;;;0.90;;
75236;SDS011;63826;48.100;-1.670;2022-10-16T04:57:25;5.95;;;1.05;;
75236;SDS011;63826;48.100;-1.670;2022-10-16T04:59:51;3.42;;;0.98;;
75236;SDS011;63826;48.100;-1.670;2022-10-16T05:02:17;5.53;;;1.27;;
75236;SDS011;63826;48.100;-1.670;2022-10-16T05:04:43;3.97;;;0.90;;
75236;SDS011;63826;48.100;-1.670;2022-10-16T05:07:09;3.42;;;1.00;;
75236;SDS011;63826;48.100;-1.670;2022-10-16T05:09:35;3.70;;;1.20;;
75236;SDS011;63826;48.100;-1.670;2022-10-16T05:12:01;2.20;;;1.08;;
75236;SDS011;63826;48.100;-1.670;2022-10-16T05:14:28;3.20;;;1.02;;
75236;SDS011;63826;48.100;-1.670;2022-10-16T05:16:54;4.67;;;0.90;;
75236;SDS011;63826;48.100;-1.670;2022-10-16T05:19:20;3.22;;;1.00;;
75236;SDS011;63826;48.100;-1.670;2022-10-16T05:21:46;2.20;;;0.93;;
75236;SDS011;63826;48.100;-1.670;2022-10-16T05:24:12;4.47;;;1.17;;
75236;SDS011;63826;48.100;-1.670;2022-10-16T05:26:39;2.67;;;0.90;;
75236;SDS011;63826;48.100;-1.670;2022-10-16T05:29:05;4.35;;;1.00;;
75236;SDS011;63826;48.100;-1.670;2022-10-16T05:31:31;3.47;;;1.10;;
75236;SDS011;63826;48.100;-1.670;2022-10-16T05:34:00;2.75;;;1.00;;
75236;SDS011;63826;48.100;-1.670;2022-10-16T05:36:26;4.03;;;1.17;;
75236;SDS011;63826;48.100;-1.670;2022-10-16T05:38:52;4.53;;;0.98;;
75236;SDS011;63826;48.100;-1.670;2022-10-16T05:41:18;3.30;;;1.23;;
75236;SDS011;63826;48.100;-1.670;2022-10-16T05:43:46;3.28;;;1.02;;
75236;SDS011;63826;48.100;-1.670;2022-10-16T05:46:12;3.22;;;0.95;;
75236;SDS011;63826;48.100;-1.670;2022-10-16T05:48:38;2.93;;;1.10;;
75236;SDS011;63826;48.100;-1.670;2022-10-16T05:51:09;3.30;;;1.20;;
75236;SDS011;63826;48.100;-1.670;2022-10-16T05:53:37;4.80;;;1.00;;
75236;SDS011;63826;48.100;-1.670;2022-10-16T05:56:03;4.70;;;1.13;;
75236;SDS011;63826;48.100;-1.670;2022-10-16T05:58:30;3.60;;;1.10;;
75236;SDS011;63826;48.100;-1.670;2022-10-16T06:00:57;4.23;;;0.97;;
75236;SDS011;63826;48.100;-1.670;2022-10-16T06:03:23;3.28;;;1.17;;
75236;SDS011;63826;48.100;-1.670;2022-10-16T06:05:50;3.80;;;1.02;;
75236;SDS011;63826;48.100;-1.670;2022-10-16T06:08:16;3.17;;;1.00;;
75236;SDS011;63826;48.100;-1.670;2022-10-16T06:10:42;3.58;;;1.10;;
75236;SDS011;63826;48.100;-1.670;2022-10-16T06:13:09;2.87;;;1.00;;
75236;SDS011;63826;48.100;-1.670;2022-10-16T06:15:35;2.72;;;1.00;;
75236;SDS011;63826;48.100;-1.670;2022-10-16T06:18:01;3.35;;;1.08;;
75236;SDS011;63826;48.100;-1.670;2022-10-16T06:20:27;2.58;;;1.00;;
75236;SDS011;63826;48.100;-1.670;2022-10-16T06:22:53;3.30;;;1.17;;
75236;SDS011;63826;48.100;-1.670;2022-10-16T06:25:19;2.75;;;0.85;;
75236;SDS011;63826;48.100;-1.670;2022-10-16T06:27:45;3.25;;;1.13;;
75236;SDS011;63826;48.100;-1.670;2022-10-16T06:30:11;3.40;;;1.05;;
75236;SDS011;63826;48.100;-1.670;2022-10-16T06:32:37;4.63;;;1.45;;
75236;SDS011;63826;48.100;-1.670;2022-10-16T06:35:03;3.90;;;1.23;;
75236;SDS011;63826;48.100;-1.670;2022-10-16T06:37:29;3.75;;;1.27;;
75236;SDS011;63826;48.100;-1.670;2022-10-16T06:39:55;4.90;;;1.30;;
75236;SDS011;63826;48.100;-1.670;2022-10-16T06:42:21;3.78;;;1.02;;
75236;SDS011;63826;48.100;-1.670;2022-10-16T06:44:47;3.53;;;1.23;;
75236;SDS011;63826;48.100;-1.670;2022-10-16T06:47:13;3.97;;;1.10;;
75236;SDS011;63826;48.100;-1.670;2022-10-16T06:49:39;5.00;;;1.70;;
75236;SDS011;63826;48.100;-1.670;2022-10-16T06:52:05;3.45;;;1.10;;
75236;SDS011;63826;48.100;-1.670;2022-10-16T06:54:31;4.05;;;1.30;;
75236;SDS011;63826;48.100;-1.670;2022-10-16T06:56:57;2.97;;;1.10;;
75236;SDS011;63826;48.100;-1.670;2022-10-16T06:59:24;4.38;;;1.33;;
75236;SDS011;63826;48.100;-1.670;2022-10-16T07:01:50;3.55;;;1.23;;
75236;SDS011;63826;48.100;-1.670;2022-10-16T07:04:16;4.05;;;1.20;;
75236;SDS011;63826;48.100;-1.670;2022-10-16T07:06:42;4.10;;;1.33;;
75236;SDS011;63826;48.100;-1.670;2022-10-16T07:09:09;3.60;;;1.13;;
75236;SDS011;63826;48.100;-1.670;2022-10-16T07:11:39;4.53;;;1.25;;
75236;SDS011;63826;48.100;-1.670;2022-10-16T07:14:10;4.30;;;1.20;;
75236;SDS011;63826;48.100;-1.670;2022-10-16T07:16:38;5.18;;;1.77;;
75236;SDS011;63826;48.100;-1.670;2022-10-16T07:19:04;4.33;;;1.50;;
75236;SDS011;63826;48.100;-1.670;2022-10-16T07:21:31;3.90;;;1.50;;
75236;SDS011;63826;48.100;-1.670;2022-10-16T07:24:00;4.47;;;1.20;;
75236;SDS011;63826;48.100;-1.670;2022-10-16T07:26:27;5.38;;;1.40;;
75236;SDS011;63826;48.100;-1.670;2022-10-16T07:28:53;3.90;;;1.20;;
75236;SDS011;63826;48.100;-1.670;2022-10-16T07:31:19;3.67;;;1.30;;
75236;SDS011;63826;48.100;-1.670;2022-10-16T07:33:46;4.43;;;1.33;;
75236;SDS011;63826;48.100;-1.670;2022-10-16T07:36:14;5.25;;;1.50;;
75236;SDS011;63826;48.100;-1.670;2022-10-16T07:38:40;3.83;;;1.38;;
75236;SDS011;63826;48.100;-1.670;2022-10-16T07:41:08;3.58;;;1.23;;
75236;SDS011;63826;48.100;-1.670;2022-10-16T07:43:35;4.07;;;1.40;;
75236;SDS011;63826;48.100;-1.670;2022-10-16T07:46:01;3.97;;;1.30;;
75236;SDS011;63826;48.100;-1.670;2022-10-16T07:48:27;4.10;;;1.40;;
75236;SDS011;63826;48.100;-1.670;2022-10-16T07:50:56;3.08;;;1.15;;
75236;SDS011;63826;48.100;-1.670;2022-10-16T07:53:23;4.22;;;1.33;;
75236;SDS011;63826;48.100;-1.670;2022-10-16T07:55:49;2.83;;;1.13;;
75236;SDS011;63826;48.100;-1.670;2022-10-16T07:58:15;5.67;;;1.43;;
75236;SDS011;63826;48.100;-1.670;2022-10-16T08:00:41;4.82;;;1.40;;
75236;SDS011;63826;48.100;-1.670;2022-10-16T08:03:07;3.63;;;1.00;;
75236;SDS011;63826;48.100;-1.670;2022-10-16T08:05:33;3.92;;;1.13;;
75236;SDS011;63826;48.100;-1.670;2022-10-16T08:08:00;5.10;;;1.30;;
75236;SDS011;63826;48.100;-1.670;2022-10-16T08:10:27;5.00;;;1.17;;
75236;SDS011;63826;48.100;-1.670;2022-10-16T08:12:53;3.33;;;1.10;;
75236;SDS011;63826;48.100;-1.670;2022-10-16T08:15:20;3.28;;;1.23;;
75236;SDS011;63826;48.100;-1.670;2022-10-16T08:17:58;3.65;;;1.20;;
75236;SDS011;63826;48.100;-1.670;2022-10-16T08:20:25;3.88;;;1.20;;
75236;SDS011;63826;48.100;-1.670;2022-10-16T08:22:52;2.40;;;1.05;;
75236;SDS011;63826;48.100;-1.670;2022-10-16T08:25:19;3.35;;;1.00;;
75236;SDS011;63826;48.100;-1.670;2022-10-16T08:27:45;3.35;;;1.20;;
75236;SDS011;63826;48.100;-1.670;2022-10-16T08:30:11;2.42;;;1.00;;
75236;SDS011;63826;48.100;-1.670;2022-10-16T08:32:37;3.03;;;0.80;;
75236;SDS011;63826;48.100;-1.670;2022-10-16T08:35:03;2.60;;;1.00;;
75236;SDS011;63826;48.100;-1.670;2022-10-16T08:37:32;2.20;;;0.70;;
75236;SDS011;63826;48.100;-1.670;2022-10-16T08:39:58;2.35;;;0.85;;
75236;SDS011;63826;48.100;-1.670;2022-10-16T08:50:14;2.75;;;1.02;;
75236;SDS011;63826;48.100;-1.670;2022-10-16T08:52:43;2.50;;;0.75;;
75236;SDS011;63826;48.100;-1.670;2022-10-16T08:58:10;2.70;;;0.70;;
75236;SDS011;63826;48.100;-1.670;2022-10-16T09:00:36;3.72;;;0.80;;
75236;SDS011;63826;48.100;-1.670;2022-10-16T09:11:34;1.77;;;0.70;;
75236;SDS011;63826;48.100;-1.670;2022-10-16T09:14:04;3.00;;;0.90;;
75236;SDS011;63826;48.100;-1.670;2022-10-16T09:16:43;2.63;;;0.60;;
75236;SDS011;63826;48.100;-1.670;2022-10-16T09:19:15;1.50;;;0.68;;
75236;SDS011;63826;48.100;-1.670;2022-10-16T09:21:43;2.47;;;0.70;;
75236;SDS011;63826;48.100;-1.670;2022-10-16T09:26:42;3.13;;;0.60;;
75236;SDS011;63826;48.100;-1.670;2022-10-16T09:29:12;2.97;;;0.75;;
75236;SDS011;63826;48.100;-1.670;2022-10-16T09:31:38;3.13;;;0.73;;
75236;SDS011;63826;48.100;-1.670;2022-10-16T09:34:04;2.88;;;0.63;;
75236;SDS011;63826;48.100;-1.670;2022-10-16T09:36:34;2.15;;;0.70;;
75236;SDS011;63826;48.100;-1.670;2022-10-16T09:39:05;1.33;;;0.40;;
75236;SDS011;63826;48.100;-1.670;2022-10-16T09:41:33;2.92;;;0.60;;
75236;SDS011;63826;48.100;-1.670;2022-10-16T09:44:00;2.33;;;0.60;;
75236;SDS011;63826;48.100;-1.670;2022-10-16T09:48:56;2.00;;;0.80;;
75236;SDS011;63826;48.100;-1.670;2022-10-16T09:51:30;2.17;;;0.73;;
75236;SDS011;63826;48.100;-1.670;2022-10-16T09:54:00;2.90;;;0.63;;
75236;SDS011;63826;48.100;-1.670;2022-10-16T09:56:33;2.15;;;0.77;;
75236;SDS011;63826;48.100;-1.670;2022-10-16T09:59:08;2.35;;;0.90;;
75236;SDS011;63826;48.100;-1.670;2022-10-16T10:01:38;2.53;;;0.70;;
75236;SDS011;63826;48.100;-1.670;2022-10-16T10:04:05;2.72;;;0.90;;
75236;SDS011;63826;48.100;-1.670;2022-10-16T10:15:51;2.70;;;0.60;;
75236;SDS011;63826;48.100;-1.670;2022-10-16T10:18:19;2.97;;;0.65;;
75236;SDS011;63826;48.100;-1.670;2022-10-16T10:20:56;2.15;;;0.50;;
75236;SDS011;63826;48.100;-1.670;2022-10-16T10:23:23;3.17;;;0.70;;
75236;SDS011;63826;48.100;-1.670;2022-10-16T10:30:56;3.03;;;0.60;;
75236;SDS011;63826;48.100;-1.670;2022-10-16T10:38:29;4.32;;;0.77;;
75236;SDS011;63826;48.100;-1.670;2022-10-16T10:41:09;3.13;;;0.80;;
75236;SDS011;63826;48.100;-1.670;2022-10-16T10:46:08;6.22;;;0.80;;
75236;SDS011;63826;48.100;-1.670;2022-10-16T10:48:43;3.72;;;1.08;;
75236;SDS011;63826;48.100;-1.670;2022-10-16T11:01:34;3.47;;;0.77;;
75236;SDS011;63826;48.100;-1.670;2022-10-16T11:07:11;4.40;;;0.85;;
75236;SDS011;63826;48.100;-1.670;2022-10-16T11:09:41;4.00;;;0.70;;
75236;SDS011;63826;48.100;-1.670;2022-10-16T11:12:18;5.15;;;0.70;;
75236;SDS011;63826;48.100;-1.670;2022-10-16T11:14:47;4.03;;;0.90;;
75236;SDS011;63826;48.100;-1.670;2022-10-16T11:17:18;3.73;;;0.60;;
75236;SDS011;63826;48.100;-1.670;2022-10-16T11:24:53;3.00;;;0.80;;
75236;SDS011;63826;48.100;-1.670;2022-10-16T11:27:20;3.45;;;0.70;;
75236;SDS011;63826;48.100;-1.670;2022-10-16T11:29:53;4.70;;;0.73;;
75236;SDS011;63826;48.100;-1.670;2022-10-16T11:32:32;3.67;;;0.90;;
75236;SDS011;63826;48.100;-1.670;2022-10-16T11:35:06;2.83;;;0.70;;
75236;SDS011;63826;48.100;-1.670;2022-10-16T11:37:36;3.55;;;1.08;;
75236;SDS011;63826;48.100;-1.670;2022-10-16T11:40:26;4.25;;;0.80;;
75236;SDS011;63826;48.100;-1.670;2022-10-16T11:42:54;7.35;;;0.93;;
75236;SDS011;63826;48.100;-1.670;2022-10-16T11:45:24;4.93;;;0.70;;
75236;SDS011;63826;48.100;-1.670;2022-10-16T11:47:54;3.10;;;0.60;;
75236;SDS011;63826;48.100;-1.670;2022-10-16T11:50:28;3.38;;;0.70;;
75236;SDS011;63826;48.100;-1.670;2022-10-16T11:55:22;3.20;;;0.60;;
75236;SDS011;63826;48.100;-1.670;2022-10-16T11:57:51;2.95;;;0.63;;
75236;SDS011;63826;48.100;-1.670;2022-10-16T12:07:55;4.27;;;1.00;;
75236;SDS011;63826;48.100;-1.670;2022-10-16T12:10:25;2.90;;;0.70;;
75236;SDS011;63826;48.100;-1.670;2022-10-16T12:12:52;5.13;;;0.95;;
75236;SDS011;63826;48.100;-1.670;2022-10-16T12:17:47;3.72;;;0.70;;
75236;SDS011;63826;48.100;-1.670;2022-10-16T12:22:51;2.42;;;0.90;;
75236;SDS011;63826;48.100;-1.670;2022-10-16T12:25:29;3.97;;;0.77;;
75236;SDS011;63826;48.100;-1.670;2022-10-16T12:28:15;2.75;;;0.80;;
75236;SDS011;63826;48.100;-1.670;2022-10-16T12:30:43;2.83;;;0.60;;
75236;SDS011;63826;48.100;-1.670;2022-10-16T12:33:19;2.80;;;0.93;;
75236;SDS011;63826;48.100;-1.670;2022-10-16T12:35:47;3.28;;;0.60;;
75236;SDS011;63826;48.100;-1.670;2022-10-16T12:40:42;3.42;;;0.80;;
75236;SDS011;63826;48.100;-1.670;2022-10-16T12:43:34;2.58;;;0.77;;
75236;SDS011;63826;48.100;-1.670;2022-10-16T12:46:35;3.67;;;0.77;;
75236;SDS011;63826;48.100;-1.670;2022-10-16T12:51:38;2.88;;;0.82;;
75236;SDS011;63826;48.100;-1.670;2022-10-16T12:56:36;4.03;;;0.60;;
75236;SDS011;63826;48.100;-1.670;2022-10-16T12:59:10;3.28;;;0.77;;
75236;SDS011;63826;48.100;-1.670;2022-10-16T13:04:15;2.47;;;0.70;;
75236;SDS011;63826;48.100;-1.670;2022-10-16T13:09:40;2.83;;;0.68;;
75236;SDS011;63826;48.100;-1.670;2022-10-16T13:17:32;4.95;;;0.68;;
75236;SDS011;63826;48.100;-1.670;2022-10-16T13:22:36;3.17;;;1.05;;
75236;SDS011;63826;48.100;-1.670;2022-10-16T13:25:28;2.95;;;0.70;;
75236;SDS011;63826;48.100;-1.670;2022-10-16T13:27:59;3.08;;;0.70;;
75236;SDS011;63826;48.100;-1.670;2022-10-16T13:30:27;2.20;;;0.60;;
75236;SDS011;63826;48.100;-1.670;2022-10-16T13:33:04;2.50;;;0.50;;
75236;SDS011;63826;48.100;-1.670;2022-10-16T13:35:32;5.88;;;0.80;;
75236;SDS011;63826;48.100;-1.670;2022-10-16T13:38:12;5.63;;;1.02;;
75236;SDS011;63826;48.100;-1.670;2022-10-16T13:40:48;3.47;;;0.55;;
75236;SDS011;63826;48.100;-1.670;2022-10-16T13:43:15;6.53;;;0.88;;
75236;SDS011;63826;48.100;-1.670;2022-10-16T13:45:52;3.90;;;0.68;;
75236;SDS011;63826;48.100;-1.670;2022-10-16T13:48:18;5.43;;;0.68;;
75236;SDS011;63826;48.100;-1.670;2022-10-16T13:50:44;4.30;;;0.75;;
75236;SDS011;63826;48.100;-1.670;2022-10-16T13:53:13;3.40;;;0.70;;
75236;SDS011;63826;48.100;-1.670;2022-10-16T13:55:40;3.47;;;0.90;;
75236;SDS011;63826;48.100;-1.670;2022-10-16T13:58:11;1.90;;;0.60;;
75236;SDS011;63826;48.100;-1.670;2022-10-16T14:00:37;2.67;;;0.73;;
75236;SDS011;63826;48.100;-1.670;2022-10-16T14:03:04;3.60;;;0.80;;
75236;SDS011;63826;48.100;-1.670;2022-10-16T14:05:31;3.30;;;0.50;;
75236;SDS011;63826;48.100;-1.670;2022-10-16T14:07:57;3.97;;;0.60;;
75236;SDS011;63826;48.100;-1.670;2022-10-16T14:10:27;3.67;;;0.70;;
75236;SDS011;63826;48.100;-1.670;2022-10-16T14:12:58;11.25;;;1.15;;
75236;SDS011;63826;48.100;-1.670;2022-10-16T14:15:26;7.70;;;1.20;;
75236;SDS011;63826;48.100;-1.670;2022-10-16T14:17:52;8.57;;;0.90;;
75236;SDS011;63826;48.100;-1.670;2022-10-16T14:20:18;5.60;;;0.68;;
75236;SDS011;63826;48.100;-1.670;2022-10-16T14:22:46;5.07;;;0.95;;
75236;SDS011;63826;48.100;-1.670;2022-10-16T14:27:44;5.10;;;0.80;;
75236;SDS011;63826;48.100;-1.670;2022-10-16T14:30:15;6.53;;;0.85;;
75236;SDS011;63826;48.100;-1.670;2022-10-16T14:32:41;4.88;;;0.80;;
75236;SDS011;63826;48.100;-1.670;2022-10-16T14:37:56;3.72;;;0.70;;
75236;SDS011;63826;48.100;-1.670;2022-10-16T14:40:23;4.65;;;0.80;;
75236;SDS011;63826;48.100;-1.670;2022-10-16T14:42:50;3.05;;;0.70;;
75236;SDS011;63826;48.100;-1.670;2022-10-16T14:45:20;3.83;;;0.70;;
75236;SDS011;63826;48.100;-1.670;2022-10-16T14:47:53;4.90;;;0.70;;
75236;SDS011;63826;48.100;-1.670;2022-10-16T14:50:19;3.50;;;0.60;;
75236;SDS011;63826;48.100;-1.670;2022-10-16T14:52:45;2.20;;;0.60;;
75236;SDS011;63826;48.100;-1.670;2022-10-16T14:55:11;3.20;;;0.60;;
75236;SDS011;63826;48.100;-1.670;2022-10-16T14:57:38;6.32;;;0.80;;
75236;SDS011;63826;48.100;-1.670;2022-10-16T15:00:23;3.10;;;0.60;;
75236;SDS011;63826;48.100;-1.670;2022-10-16T15:02:50;2.45;;;0.60;;
75236;SDS011;63826;48.100;-1.670;2022-10-16T15:05:17;2.65;;;0.63;;
75236;SDS011;63826;48.100;-1.670;2022-10-16T15:07:44;1.75;;;0.60;;
75236;SDS011;63826;48.100;-1.670;2022-10-16T15:10:11;3.13;;;0.70;;
75236;SDS011;63826;48.100;-1.670;2022-10-16T15:12:37;2.72;;;0.57;;
75236;SDS011;63826;48.100;-1.670;2022-10-16T15:15:37;3.00;;;0.70;;
75236;SDS011;63826;48.100;-1.670;2022-10-16T15:17:56;2.22;;;0.60;;
75236;SDS011;63826;48.100;-1.670;2022-10-16T15:20:26;2.33;;;0.50;;
75236;SDS011;63826;48.100;-1.670;2022-10-16T15:22:53;5.60;;;0.52;;
75236;SDS011;63826;48.100;-1.670;2022-10-16T15:28:00;2.97;;;0.60;;
75236;SDS011;63826;48.100;-1.670;2022-10-16T15:30:27;2.83;;;0.60;;
75236;SDS011;63826;48.100;-1.670;2022-10-16T15:32:53;1.70;;;0.60;;
75236;SDS011;63826;48.100;-1.670;2022-10-16T15:35:19;1.70;;;0.57;;
75236;SDS011;63826;48.100;-1.670;2022-10-16T15:37:48;2.33;;;0.52;;
75236;SDS011;63826;48.100;-1.670;2022-10-16T15:40:15;1.98;;;0.60;;
75236;SDS011;63826;48.100;-1.670;2022-10-16T15:42:41;2.38;;;0.60;;
75236;SDS011;63826;48.100;-1.670;2022-10-16T15:45:08;2.30;;;0.60;;
75236;SDS011;63826;48.100;-1.670;2022-10-16T15:47:34;3.13;;;0.50;;
75236;SDS011;63826;48.100;-1.670;2022-10-16T15:50:00;1.75;;;0.50;;
75236;SDS011;63826;48.100;-1.670;2022-10-16T15:52:26;1.40;;;0.50;;
75236;SDS011;63826;48.100;-1.670;2022-10-16T15:54:53;2.63;;;0.50;;
75236;SDS011;63826;48.100;-1.670;2022-10-16T15:57:20;0.95;;;0.40;;
75236;SDS011;63826;48.100;-1.670;2022-10-16T15:59:46;2.28;;;0.50;;
75236;SDS011;63826;48.100;-1.670;2022-10-16T16:02:12;1.67;;;0.40;;
75236;SDS011;63826;48.100;-1.670;2022-10-16T16:04:38;1.73;;;0.57;;
75236;SDS011;63826;48.100;-1.670;2022-10-16T16:07:04;2.33;;;0.60;;
75236;SDS011;63826;48.100;-1.670;2022-10-16T16:09:32;1.90;;;0.60;;
75236;SDS011;63826;48.100;-1.670;2022-10-16T16:11:58;4.20;;;0.60;;
75236;SDS011;63826;48.100;-1.670;2022-10-16T16:14:26;2.30;;;0.55;;
75236;SDS011;63826;48.100;-1.670;2022-10-16T16:16:53;2.85;;;0.60;;
75236;SDS011;63826;48.100;-1.670;2022-10-16T16:19:19;3.33;;;0.40;;
75236;SDS011;63826;48.100;-1.670;2022-10-16T16:21:46;1.95;;;0.40;;
75236;SDS011;63826;48.100;-1.670;2022-10-16T16:24:12;1.65;;;0.60;;
75236;SDS011;63826;48.100;-1.670;2022-10-16T16:26:38;2.55;;;0.50;;
75236;SDS011;63826;48.100;-1.670;2022-10-16T16:29:08;1.40;;;0.50;;
75236;SDS011;63826;48.100;-1.670;2022-10-16T16:31:34;2.30;;;0.57;;
75236;SDS011;63826;48.100;-1.670;2022-10-16T16:34:00;1.23;;;0.55;;
75236;SDS011;63826;48.100;-1.670;2022-10-16T16:36:26;1.42;;;0.50;;
75236;SDS011;63826;48.100;-1.670;2022-10-16T16:38:53;2.30;;;0.60;;
75236;SDS011;63826;48.100;-1.670;2022-10-16T16:44:22;1.98;;;0.47;;
75236;SDS011;63826;48.100;-1.670;2022-10-16T16:46:48;1.08;;;0.47;;
75236;SDS011;63826;48.100;-1.670;2022-10-16T16:49:14;3.63;;;0.80;;
75236;SDS011;63826;48.100;-1.670;2022-10-16T16:51:41;2.70;;;0.50;;
75236;SDS011;63826;48.100;-1.670;2022-10-16T16:54:07;12.10;;;1.20;;
75236;SDS011;63826;48.100;-1.670;2022-10-16T16:56:33;3.30;;;0.63;;